createdAt,value
2022-10-27T00:03:16.369Z,100.0
2022-10-27T00:08:45.842Z,100.0
2022-10-27T00:14:17.313Z,100.0
2022-10-27T00:19:49.006Z,100.0
2022-10-27T00:25:20.750Z,100.0
2022-10-27T00:30:52.401Z,100.0
2022-10-27T00:36:24.114Z,100.0
2022-10-27T00:41:55.934Z,100.0
2022-10-27T00:47:27.637Z,100.0
2022-10-27T00:52:59.372Z,100.0
2022-10-27T00:58:37.541Z,100.0
2022-10-27T01:04:09.514Z,100.0
2022-10-27T01:09:45.538Z,100.0
2022-10-27T01:15:12.766Z,100.0
2022-10-27T01:20:44.354Z,100.0
2022-10-27T01:26:16.371Z,100.0
2022-10-27T01:31:47.945Z,100.0
2022-10-27T01:37:19.577Z,100.0
2022-10-27T01:42:52.585Z,100.0
2022-10-27T01:48:23.014Z,100.0
2022-10-27T01:53:54.766Z,100.0
2022-10-27T01:59:30.946Z,100.0
2022-10-27T02:05:02.630Z,100.0
2022-10-27T02:10:34.765Z,100.0
2022-10-27T02:16:06.021Z,100.0
2022-10-27T02:21:37.787Z,100.0
2022-10-27T02:27:09.393Z,100.0
2022-10-27T02:32:41.187Z,100.0
2022-10-27T02:38:12.906Z,100.0
2022-10-27T02:43:44.853Z,100.0
2022-10-27T02:49:16.357Z,100.0
2022-10-27T02:54:48.188Z,100.0
2022-10-27T03:05:57.939Z,100.0
2022-10-27T03:11:29.698Z,100.0
2022-10-27T03:17:01.445Z,100.0
2022-10-27T03:22:33.276Z,100.0
2022-10-27T03:28:04.878Z,100.0
2022-10-27T03:33:36.557Z,100.0
2022-10-27T03:39:08.349Z,100.0
2022-10-27T03:44:40.113Z,100.0
2022-10-27T03:50:11.655Z,100.0
2022-10-27T03:55:43.890Z,100.0
2022-10-27T04:01:20.642Z,100.0
2022-10-27T04:06:51.242Z,100.0
2022-10-27T04:12:22.998Z,100.0
2022-10-27T04:17:54.786Z,100.0
2022-10-27T04:23:26.391Z,100.0
2022-10-27T04:28:58.442Z,100.0
2022-10-27T04:34:29.892Z,100.0
2022-10-27T04:40:02.338Z,100.0
2022-10-27T04:45:33.375Z,100.0
2022-10-27T04:51:05.554Z,100.0
2022-10-27T04:56:36.951Z,100.0
2022-10-27T05:02:12.977Z,100.0
2022-10-27T05:07:44.634Z,100.0
2022-10-27T05:13:16.422Z,100.0
2022-10-27T05:18:47.994Z,100.0
2022-10-27T05:24:19.954Z,100.0
2022-10-27T05:29:51.570Z,100.0
2022-10-27T05:35:23.254Z,100.0
2022-10-27T05:40:54.974Z,100.0
2022-10-27T05:46:26.958Z,100.0
2022-10-27T05:51:58.397Z,100.0
2022-10-27T05:57:30.247Z,100.0
2022-10-27T06:03:08.450Z,100.0
2022-10-27T06:08:40.139Z,100.0
2022-10-27T06:14:11.874Z,100.0
2022-10-27T06:19:43.941Z,100.0
2022-10-27T06:25:16.913Z,100.0
2022-10-27T06:30:46.997Z,100.0
2022-10-27T06:36:18.794Z,100.0
2022-10-27T06:41:50.508Z,100.0
2022-10-27T06:47:22.237Z,100.0
2022-10-27T06:52:54.657Z,100.0
2022-10-27T06:58:25.652Z,100.0
2022-10-27T07:04:03.841Z,100.0
2022-10-27T07:09:35.493Z,100.0
2022-10-27T07:15:07.246Z,100.0
2022-10-27T07:20:39.625Z,100.0
2022-10-27T07:26:10.719Z,100.0
2022-10-27T07:31:42.468Z,100.0
2022-10-27T07:37:14.166Z,100.0
2022-10-27T07:42:45.842Z,100.0
2022-10-27T07:48:17.702Z,100.0
2022-10-27T07:53:53.969Z,100.0
2022-10-27T07:59:21.136Z,100.0
2022-10-27T08:04:57.194Z,100.0
2022-10-27T08:10:28.923Z,100.0
2022-10-27T08:16:01.084Z,100.0
2022-10-27T08:21:32.409Z,99.13
2022-10-27T08:27:04.238Z,99.16
2022-10-27T08:32:35.808Z,98.13
2022-10-27T08:38:07.737Z,96.7
2022-10-27T08:43:39.374Z,96.11
2022-10-27T08:49:11.287Z,94.94
2022-10-27T08:54:42.958Z,96.3
2022-10-27T09:00:14.641Z,94.36
2022-10-27T09:05:53.218Z,95.04
2022-10-27T09:11:24.457Z,93.57
2022-10-27T09:16:56.204Z,92.55
2022-10-27T09:22:27.891Z,93.19
2022-10-27T09:27:59.626Z,91.81
2022-10-27T09:33:31.331Z,92.97
2022-10-27T09:39:03.716Z,90.27
2022-10-27T09:44:35.348Z,90.98
2022-10-27T09:50:07.101Z,88.71
2022-10-27T10:01:10.598Z,87.31
2022-10-27T10:06:48.661Z,87.7
2022-10-27T10:12:24.467Z,88.31
2022-10-27T10:17:52.141Z,86.4
2022-10-27T10:23:23.780Z,85.61
2022-10-27T10:28:55.717Z,86.33
2022-10-27T10:34:27.242Z,85.26
2022-10-27T10:39:58.991Z,84.05
2022-10-27T10:45:30.728Z,83.09
2022-10-27T10:51:02.711Z,83.08
2022-10-27T10:56:34.102Z,82.34
2022-10-27T11:02:05.998Z,81.52
2022-10-27T11:07:42.178Z,81.7
2022-10-27T11:13:13.813Z,80.68
2022-10-27T11:18:46.526Z,80.18
2022-10-27T11:24:17.126Z,81.2
2022-10-27T11:29:49.706Z,78.84
2022-10-27T11:35:20.850Z,80.18
2022-10-27T11:40:52.402Z,77.54
2022-10-27T11:46:24.110Z,77.19
2022-10-27T11:51:55.714Z,77.27
2022-10-27T11:57:40.197Z,76.12
2022-10-27T12:02:59.332Z,75.1
2022-10-27T12:08:39.286Z,74.11
2022-10-27T12:14:11.567Z,73.85
2022-10-27T12:19:42.979Z,74.26
2022-10-27T12:25:14.542Z,73.96
2022-10-27T12:30:46.589Z,72.15
2022-10-27T12:36:18.064Z,74.78
2022-10-27T12:41:49.799Z,72.69
2022-10-27T12:47:21.644Z,73.11
2022-10-27T12:52:54.528Z,72.79
2022-10-27T12:58:25.601Z,72.02
2022-10-27T13:03:57.551Z,72.85
2022-10-27T13:09:33.711Z,73.66
2022-10-27T13:15:05.591Z,71.81
2022-10-27T13:20:37.223Z,72.58
2022-10-27T13:26:09.479Z,72.55
2022-10-27T13:31:40.494Z,71.49
2022-10-27T13:37:12.250Z,71.47
2022-10-27T13:42:44.077Z,71.51
2022-10-27T13:48:15.587Z,71.54
2022-10-27T13:53:47.538Z,72.55
2022-10-27T13:59:19.351Z,72.88
2022-10-27T14:04:51.126Z,72.37
2022-10-27T14:10:27.041Z,73.33
2022-10-27T14:15:58.871Z,72.62
2022-10-27T14:21:31.098Z,72.61
2022-10-27T14:27:02.298Z,74.05
2022-10-27T14:32:34.195Z,72.64
2022-10-27T14:38:05.935Z,73.67
2022-10-27T14:43:38.649Z,73.98
2022-10-27T14:49:09.311Z,74.0
2022-10-27T14:54:41.257Z,74.04
2022-10-27T15:00:13.514Z,74.48
2022-10-27T15:05:44.614Z,74.71
2022-10-27T15:11:22.687Z,74.59
2022-10-27T15:16:54.413Z,74.79
2022-10-27T15:22:26.118Z,75.27
2022-10-27T15:27:57.902Z,75.7
2022-10-27T15:33:29.577Z,76.53
2022-10-27T15:39:01.701Z,76.0
2022-10-27T15:44:33.008Z,76.34
2022-10-27T15:50:04.816Z,76.34
2022-10-27T15:55:37.103Z,77.07
2022-10-27T16:01:08.979Z,77.05
2022-10-27T16:06:40.504Z,78.85
2022-10-27T16:12:16.376Z,78.92
2022-10-27T16:17:48.136Z,79.53
2022-10-27T16:23:19.813Z,79.75
2022-10-27T16:28:51.706Z,80.21
2022-10-27T16:34:27.174Z,81.54
2022-10-27T16:39:55.047Z,82.3
2022-10-27T16:45:27.298Z,82.8
2022-10-27T16:50:58.542Z,83.12
2022-10-27T16:56:30.166Z,83.49
2022-10-27T17:02:02.404Z,84.54
2022-10-27T17:07:33.706Z,84.73
2022-10-27T17:13:09.946Z,85.13
2022-10-27T17:18:41.534Z,85.6
2022-10-27T17:24:13.235Z,85.75
2022-10-27T17:29:45.034Z,85.6
2022-10-27T17:35:16.834Z,85.52
2022-10-27T17:40:48.506Z,85.34
2022-10-27T17:46:20.301Z,85.64
2022-10-27T17:51:52.174Z,85.68
2022-10-27T17:57:23.814Z,86.51
2022-10-27T18:02:55.876Z,86.85
2022-10-27T18:08:27.334Z,86.56
2022-10-27T18:14:04.442Z,86.75
2022-10-27T18:19:35.201Z,86.48
2022-10-27T18:25:07.381Z,86.85
2022-10-27T18:30:38.594Z,86.86
2022-10-27T18:36:10.286Z,87.72
2022-10-27T18:41:42.463Z,87.17
2022-10-27T18:47:13.965Z,88.33
2022-10-27T18:52:45.846Z,88.31
2022-10-27T18:58:17.507Z,87.39
2022-10-27T19:03:53.163Z,87.13
2022-10-27T19:09:20.997Z,87.04
2022-10-27T19:14:59.146Z,86.56
2022-10-27T19:20:30.778Z,86.37
2022-10-27T19:26:02.526Z,86.79
2022-10-27T19:31:34.446Z,87.49
2022-10-27T19:37:05.951Z,87.41
2022-10-27T19:42:37.787Z,87.22
2022-10-27T19:48:09.689Z,87.9
2022-10-27T19:53:41.234Z,87.86
2022-10-27T19:59:12.922Z,87.62
2022-10-27T20:04:44.578Z,87.17
2022-10-27T20:10:16.306Z,86.9
2022-10-27T20:15:54.450Z,86.64
2022-10-27T20:21:26.317Z,86.31
2022-10-27T20:26:57.882Z,86.15
2022-10-27T20:32:29.585Z,86.92
2022-10-27T20:38:01.523Z,86.67
2022-10-27T20:43:33.363Z,87.31
2022-10-27T20:49:04.838Z,86.95
2022-10-27T20:54:36.670Z,87.36
2022-10-27T21:00:08.274Z,86.61
2022-10-27T21:05:39.955Z,87.88
2022-10-27T21:11:11.737Z,87.77
2022-10-27T21:16:51.844Z,87.14
2022-10-27T21:22:19.526Z,87.0
2022-10-27T21:27:51.188Z,86.8
2022-10-27T21:33:23.026Z,86.7
2022-10-27T21:38:54.779Z,87.64
2022-10-27T21:44:26.511Z,88.19
2022-10-27T21:49:58.225Z,88.29
2022-10-27T21:55:29.936Z,89.3
2022-10-27T22:01:01.836Z,88.66
2022-10-27T22:06:34.093Z,89.3
2022-10-27T22:12:05.166Z,88.79
2022-10-27T22:17:43.173Z,88.28
2022-10-27T22:23:15.029Z,88.06
2022-10-27T22:28:46.651Z,88.51
2022-10-27T22:34:18.479Z,88.96
2022-10-27T22:39:50.139Z,88.41
2022-10-27T22:45:21.798Z,88.98
2022-10-27T22:50:53.582Z,88.15
2022-10-27T22:56:25.186Z,87.44
2022-10-27T23:01:57.227Z,87.49
2022-10-27T23:07:28.774Z,87.02
2022-10-27T23:13:00.461Z,86.94
2022-10-27T23:18:36.598Z,87.31
2022-10-27T23:24:08.336Z,86.64
2022-10-27T23:29:40.198Z,86.45
2022-10-27T23:35:11.751Z,88.35
2022-10-27T23:40:43.498Z,88.85
2022-10-27T23:46:15.332Z,89.38
2022-10-27T23:51:46.966Z,88.87
2022-10-27T23:57:18.618Z,88.83
